ADDS METAR Data INFO
IDs: Format: Raw Decoded Include TAF

Data at: 1605 UTC 25 Apr 2018

KJAC 251556Z VRB05KT 10SM CLR 04/M06 A3033 RMK AO2 SLP287 T00441056
KJAC 251456Z 00000KT 10SM CLR 01/M07 A3034 RMK AO2 SLP299 T00111067 58008
KJAC 251356Z 00000KT 10SM CLR M02/M06 A3037 RMK AO2 SLP301 T10171061
KJAC 251256Z 03003KT 10SM CLR M05/M08 A3037 RMK AO2 SLP302 T10501078
KJAC 251156Z AUTO 00000KT 10SM CLR M06/M08 A3037 RMK AO2 SLP304 6//// 7//// T10561078 11006 21067 58003 FZRANO
KJAC 251056Z AUTO 05004KT 10SM CLR M06/M08 A3039 RMK AO2 SLP308 T10561078 FZRANO
KJAC 250956Z AUTO 04004KT 10SM CLR M06/M08 A3039 RMK AO2 SLP309 T10561078 FZRANO
KJAC 250856Z AUTO 35003KT 10SM CLR M02/M07 A3039 RMK AO2 SLP302 6//// T10171067 58001 FZRANO
KJAC 250756Z AUTO 02005KT 10SM CLR M04/M07 A3039 RMK AO2 SLP312 T10391072 FZRANO
KJAC 250656Z AUTO 34005KT 10SM CLR M02/M07 A3039 RMK AO2 SLP311 T10221067 401171033 FZRANO
KJAC 250556Z AUTO 02003KT 10SM CLR M01/M06 A3039 RMK AO2 SLP306 6//// T10061056 10111 21033 51008 FZRANO
KJAC 250456Z AUTO 36006KT 10SM CLR M01/M06 A3038 RMK AO2 SLP309 T10061056 FZRANO
KJAC 250356Z AUTO 00000KT 10SM CLR 01/M06 A3038 RMK AO2 SLP308 T00111061 FZRANO
KJAC 250256Z AUTO 00000KT 10SM CLR 02/M07 A3036 RMK AO2 SLP304 6//// T00221067 53002 FZRANO
KJAC 250156Z 01006KT 10SM CLR 07/M08 A3035 RMK AO2 SLP289 T00721078
KJAC 250056Z 01007KT 10SM CLR 11/M08 A3035 RMK AO2 SLP283 T01061078
KJAC 242356Z 03004KT 10SM CLR 11/M07 A3035 RMK AO2 SLP284 T01061067 10117 20061 56007
KJAC 242256Z VRB03KT 10SM CLR 11/M07 A3036 RMK AO2 SLP283 T01111067
KJAC 242156Z VRB06KT 10SM CLR 11/M06 A3036 RMK AO2 SLP286 T01061061
KJAC 242056Z 03005KT 10SM BKN060 09/M06 A3038 RMK AO2 SLP296 T00941061 56012
KJAC 241956Z VRB04KT 10SM SCT060 08/M06 A3039 RMK AO2 SLP299 T00831061
KJAC 241856Z 31008KT 10SM OVC050 07/M06 A3041 RMK AO2 SLP310 T00671056
KJAC 241756Z 12007KT 050V160 10SM OVC046 07/M06 A3042 RMK AO2 SLP311 T00671056 10072 21017 51001
KJAC 241656Z 36008KT 10SM OVC050 04/M06 A3042 RMK AO2 SLP317 T00441061
KJAC 241556Z 36012KT 10SM OVC048 03/M07 A3042 RMK AO2 SLP317 T00331067
KJAC 241456Z 02015KT 10SM OVC042 01/M07 A3042 RMK AO2 SLP321 T00061072 51014
KJAC 241356Z 02013G19KT 10SM OVC044 00/M08 A3040 RMK AO2 SLP317 T00001078
KJAC 241256Z 03009G15KT 10SM CLR M01/M07 A3038 RMK AO2 SLP311 T10111067
KJAC 241156Z AUTO 02013KT 10SM CLR M01/M07 A3036 RMK AO2 SLP303 7//// T10111067 10017 21011 53010 FZRANO
KJAC 241056Z AUTO 02012KT 10SM OVC041 M01/M07 A3035 RMK AO2 SLP289 T10061067 FZRANO
KJAC 240856Z AUTO 02015KT 10SM BKN039 M01/M05 A3033 RMK AO2 SLP282 T10061050 51006 FZRANO
KJAC 240756Z AUTO 02014KT 10SM BKN041 00/M05 A3033 RMK AO2 SLP284 T00001050 FZRANO
KJAC 240656Z AUTO 01014KT 10SM SCT065 01/M04 A3032 RMK AO2 SLP269 T00061044 401000006 FZRANO
KJAC 240556Z AUTO 02012KT 10SM OVC060 02/M03 A3031 RMK AO2 SLP269 60000 T00171033 10056 20017 51008 FZRANO
KJAC 240456Z AUTO 04007KT 10SM OVC065 02/M03 A3031 RMK AO2 RAB03E13 SLP268 P0000 T00221028 FZRANO